sensor_id;sensor_type;location;lat;lon;timestamp;temperature;humidity
54082;DHT22;39986;50.770;0.266;2022-08-21T00:01:16;18.00;99.90
54082;DHT22;39986;50.770;0.266;2022-08-21T00:03:43;18.00;99.90
54082;DHT22;39986;50.770;0.266;2022-08-21T00:06:09;18.00;99.90
54082;DHT22;39986;50.770;0.266;2022-08-21T00:08:34;18.00;99.90
54082;DHT22;39986;50.770;0.266;2022-08-21T00:11:00;18.00;99.90
54082;DHT22;39986;50.770;0.266;2022-08-21T00:13:26;18.00;99.90
54082;DHT22;39986;50.770;0.266;2022-08-21T00:15:52;18.00;99.90
54082;DHT22;39986;50.770;0.266;2022-08-21T00:18:18;18.00;99.90
54082;DHT22;39986;50.770;0.266;2022-08-21T00:20:45;18.00;99.90
54082;DHT22;39986;50.770;0.266;2022-08-21T00:23:11;18.00;99.90
54082;DHT22;39986;50.770;0.266;2022-08-21T00:25:37;17.90;99.90
54082;DHT22;39986;50.770;0.266;2022-08-21T00:28:04;17.90;99.90
54082;DHT22;39986;50.770;0.266;2022-08-21T00:30:30;17.90;99.90
54082;DHT22;39986;50.770;0.266;2022-08-21T00:32:56;17.90;99.90
54082;DHT22;39986;50.770;0.266;2022-08-21T00:35:26;17.80;99.90
54082;DHT22;39986;50.770;0.266;2022-08-21T00:37:52;17.80;99.90
54082;DHT22;39986;50.770;0.266;2022-08-21T00:40:27;17.80;99.90
54082;DHT22;39986;50.770;0.266;2022-08-21T00:42:53;17.70;99.90
54082;DHT22;39986;50.770;0.266;2022-08-21T00:45:20;17.70;99.90
54082;DHT22;39986;50.770;0.266;2022-08-21T00:47:46;17.70;99.90
54082;DHT22;39986;50.770;0.266;2022-08-21T00:50:12;17.70;99.90
54082;DHT22;39986;50.770;0.266;2022-08-21T00:52:39;17.70;99.90
54082;DHT22;39986;50.770;0.266;2022-08-21T00:55:07;17.60;99.90
54082;DHT22;39986;50.770;0.266;2022-08-21T00:57:39;17.70;99.90
54082;DHT22;39986;50.770;0.266;2022-08-21T01:00:09;17.60;99.90
54082;DHT22;39986;50.770;0.266;2022-08-21T01:02:36;17.60;99.90
54082;DHT22;39986;50.770;0.266;2022-08-21T01:05:03;17.60;99.90
54082;DHT22;39986;50.770;0.266;2022-08-21T01:07:54;17.60;99.90
54082;DHT22;39986;50.770;0.266;2022-08-21T01:10:22;17.60;99.90
54082;DHT22;39986;50.770;0.266;2022-08-21T01:12:49;17.70;99.90
54082;DHT22;39986;50.770;0.266;2022-08-21T01:15:17;17.60;99.90
54082;DHT22;39986;50.770;0.266;2022-08-21T01:17:43;17.70;99.90
54082;DHT22;39986;50.770;0.266;2022-08-21T01:20:10;17.70;99.90
54082;DHT22;39986;50.770;0.266;2022-08-21T01:22:37;17.70;99.90
54082;DHT22;39986;50.770;0.266;2022-08-21T01:25:05;17.70;99.90
54082;DHT22;39986;50.770;0.266;2022-08-21T01:27:32;17.70;99.90
54082;DHT22;39986;50.770;0.266;2022-08-21T01:30:35;17.70;99.90
54082;DHT22;39986;50.770;0.266;2022-08-21T01:32:54;17.70;99.90
54082;DHT22;39986;50.770;0.266;2022-08-21T01:35:21;17.70;99.90
54082;DHT22;39986;50.770;0.266;2022-08-21T01:37:48;17.70;99.90
54082;DHT22;39986;50.770;0.266;2022-08-21T01:40:15;17.60;99.90
54082;DHT22;39986;50.770;0.266;2022-08-21T01:42:43;17.60;99.90
54082;DHT22;39986;50.770;0.266;2022-08-21T01:45:09;17.70;99.90
54082;DHT22;39986;50.770;0.266;2022-08-21T01:47:36;17.70;99.90
54082;DHT22;39986;50.770;0.266;2022-08-21T01:50:06;17.60;99.90
54082;DHT22;39986;50.770;0.266;2022-08-21T01:52:32;17.60;99.90
54082;DHT22;39986;50.770;0.266;2022-08-21T01:54:58;17.60;99.90
54082;DHT22;39986;50.770;0.266;2022-08-21T01:57:23;17.60;99.90
54082;DHT22;39986;50.770;0.266;2022-08-21T01:59:49;17.70;99.90
54082;DHT22;39986;50.770;0.266;2022-08-21T02:02:15;17.70;99.90
54082;DHT22;39986;50.770;0.266;2022-08-21T02:04:40;17.70;99.90
54082;DHT22;39986;50.770;0.266;2022-08-21T02:07:07;17.70;99.90
54082;DHT22;39986;50.770;0.266;2022-08-21T02:09:41;17.70;99.90
54082;DHT22;39986;50.770;0.266;2022-08-21T02:12:10;17.70;99.90
54082;DHT22;39986;50.770;0.266;2022-08-21T02:14:36;17.60;99.90
54082;DHT22;39986;50.770;0.266;2022-08-21T02:17:03;17.60;99.90
54082;DHT22;39986;50.770;0.266;2022-08-21T02:19:28;17.60;99.90
54082;DHT22;39986;50.770;0.266;2022-08-21T02:21:54;17.60;99.90
54082;DHT22;39986;50.770;0.266;2022-08-21T02:24:20;17.60;99.90
54082;DHT22;39986;50.770;0.266;2022-08-21T02:26:46;17.70;99.90
54082;DHT22;39986;50.770;0.266;2022-08-21T02:29:12;17.60;99.90
54082;DHT22;39986;50.770;0.266;2022-08-21T02:31:38;17.60;99.90
54082;DHT22;39986;50.770;0.266;2022-08-21T02:34:03;17.60;99.90
54082;DHT22;39986;50.770;0.266;2022-08-21T02:36:29;17.60;99.90
54082;DHT22;39986;50.770;0.266;2022-08-21T02:38:55;17.70;99.90
54082;DHT22;39986;50.770;0.266;2022-08-21T02:41:21;17.80;99.90
54082;DHT22;39986;50.770;0.266;2022-08-21T02:43:47;17.80;99.90
54082;DHT22;39986;50.770;0.266;2022-08-21T02:46:15;17.90;99.90
54082;DHT22;39986;50.770;0.266;2022-08-21T02:48:42;18.00;99.90
54082;DHT22;39986;50.770;0.266;2022-08-21T02:51:13;18.00;99.90
54082;DHT22;39986;50.770;0.266;2022-08-21T02:53:40;18.00;99.90
54082;DHT22;39986;50.770;0.266;2022-08-21T02:56:09;18.10;99.90
54082;DHT22;39986;50.770;0.266;2022-08-21T02:58:40;18.10;99.90
54082;DHT22;39986;50.770;0.266;2022-08-21T03:01:07;18.10;99.90
54082;DHT22;39986;50.770;0.266;2022-08-21T03:03:36;18.20;99.90
54082;DHT22;39986;50.770;0.266;2022-08-21T03:06:04;18.10;99.90
54082;DHT22;39986;50.770;0.266;2022-08-21T03:08:30;18.00;99.90
54082;DHT22;39986;50.770;0.266;2022-08-21T03:10:56;18.00;99.90
54082;DHT22;39986;50.770;0.266;2022-08-21T03:13:22;17.90;99.90
54082;DHT22;39986;50.770;0.266;2022-08-21T03:15:49;17.90;99.90
54082;DHT22;39986;50.770;0.266;2022-08-21T03:18:16;17.80;99.90
54082;DHT22;39986;50.770;0.266;2022-08-21T03:20:43;17.80;99.90
54082;DHT22;39986;50.770;0.266;2022-08-21T03:23:10;17.70;99.90
54082;DHT22;39986;50.770;0.266;2022-08-21T03:25:37;17.70;99.90
54082;DHT22;39986;50.770;0.266;2022-08-21T03:28:07;17.70;99.90
54082;DHT22;39986;50.770;0.266;2022-08-21T03:30:33;17.70;99.90
54082;DHT22;39986;50.770;0.266;2022-08-21T03:32:59;17.60;99.90
54082;DHT22;39986;50.770;0.266;2022-08-21T03:35:27;17.60;99.90
54082;DHT22;39986;50.770;0.266;2022-08-21T03:37:53;17.60;99.90
54082;DHT22;39986;50.770;0.266;2022-08-21T03:40:20;17.60;99.90
54082;DHT22;39986;50.770;0.266;2022-08-21T03:42:46;17.60;99.90
54082;DHT22;39986;50.770;0.266;2022-08-21T03:45:14;17.60;99.90
54082;DHT22;39986;50.770;0.266;2022-08-21T03:48:00;17.50;99.90
54082;DHT22;39986;50.770;0.266;2022-08-21T03:50:29;17.60;99.90
54082;DHT22;39986;50.770;0.266;2022-08-21T03:52:56;17.50;99.90
54082;DHT22;39986;50.770;0.266;2022-08-21T03:55:22;17.50;99.90
54082;DHT22;39986;50.770;0.266;2022-08-21T03:57:48;17.50;99.90
54082;DHT22;39986;50.770;0.266;2022-08-21T04:00:15;17.50;99.90
54082;DHT22;39986;50.770;0.266;2022-08-21T04:02:42;17.50;99.90
54082;DHT22;39986;50.770;0.266;2022-08-21T04:05:10;17.50;99.90
54082;DHT22;39986;50.770;0.266;2022-08-21T04:07:36;17.40;99.90
54082;DHT22;39986;50.770;0.266;2022-08-21T04:10:04;17.40;99.90
54082;DHT22;39986;50.770;0.266;2022-08-21T04:12:30;17.50;99.90
54082;DHT22;39986;50.770;0.266;2022-08-21T04:14:55;17.40;99.90
54082;DHT22;39986;50.770;0.266;2022-08-21T04:17:22;17.40;99.90
54082;DHT22;39986;50.770;0.266;2022-08-21T04:19:47;17.30;99.90
54082;DHT22;39986;50.770;0.266;2022-08-21T04:22:15;17.30;99.90
54082;DHT22;39986;50.770;0.266;2022-08-21T04:24:40;17.30;99.90
54082;DHT22;39986;50.770;0.266;2022-08-21T04:27:06;17.30;99.90
54082;DHT22;39986;50.770;0.266;2022-08-21T04:29:32;17.30;99.90
54082;DHT22;39986;50.770;0.266;2022-08-21T04:31:58;17.30;99.90
54082;DHT22;39986;50.770;0.266;2022-08-21T04:34:24;17.30;99.90
54082;DHT22;39986;50.770;0.266;2022-08-21T04:36:50;17.30;99.90
54082;DHT22;39986;50.770;0.266;2022-08-21T04:39:16;17.40;99.90
54082;DHT22;39986;50.770;0.266;2022-08-21T04:41:41;17.40;99.90
54082;DHT22;39986;50.770;0.266;2022-08-21T04:44:07;17.50;99.90
54082;DHT22;39986;50.770;0.266;2022-08-21T04:46:34;17.60;99.90
54082;DHT22;39986;50.770;0.266;2022-08-21T04:49:00;17.70;99.90
54082;DHT22;39986;50.770;0.266;2022-08-21T04:51:29;17.70;99.90
54082;DHT22;39986;50.770;0.266;2022-08-21T04:54:00;17.80;99.90
54082;DHT22;39986;50.770;0.266;2022-08-21T04:56:34;17.80;99.90
54082;DHT22;39986;50.770;0.266;2022-08-21T04:59:02;17.80;99.90
54082;DHT22;39986;50.770;0.266;2022-08-21T05:01:33;17.90;99.90
54082;DHT22;39986;50.770;0.266;2022-08-21T05:04:01;17.90;99.90
54082;DHT22;39986;50.770;0.266;2022-08-21T05:06:31;17.80;99.90
54082;DHT22;39986;50.770;0.266;2022-08-21T05:09:00;17.90;99.90
54082;DHT22;39986;50.770;0.266;2022-08-21T05:11:27;18.00;99.90
54082;DHT22;39986;50.770;0.266;2022-08-21T05:13:53;18.00;99.90
54082;DHT22;39986;50.770;0.266;2022-08-21T05:16:19;18.00;99.90
54082;DHT22;39986;50.770;0.266;2022-08-21T05:18:44;18.10;99.90
54082;DHT22;39986;50.770;0.266;2022-08-21T05:21:10;18.20;99.90
54082;DHT22;39986;50.770;0.266;2022-08-21T05:23:36;18.30;99.90
54082;DHT22;39986;50.770;0.266;2022-08-21T05:26:02;18.30;99.90
54082;DHT22;39986;50.770;0.266;2022-08-21T05:28:30;18.30;99.90
54082;DHT22;39986;50.770;0.266;2022-08-21T05:30:56;18.30;99.90
54082;DHT22;39986;50.770;0.266;2022-08-21T05:33:21;18.40;99.90
54082;DHT22;39986;50.770;0.266;2022-08-21T05:35:53;18.40;99.90
54082;DHT22;39986;50.770;0.266;2022-08-21T05:38:22;18.40;99.90
54082;DHT22;39986;50.770;0.266;2022-08-21T05:40:48;18.50;99.90
54082;DHT22;39986;50.770;0.266;2022-08-21T05:43:14;18.60;99.90
54082;DHT22;39986;50.770;0.266;2022-08-21T05:45:40;18.70;99.90
54082;DHT22;39986;50.770;0.266;2022-08-21T05:50:39;18.80;99.90
54082;DHT22;39986;50.770;0.266;2022-08-21T05:53:06;18.90;99.90
54082;DHT22;39986;50.770;0.266;2022-08-21T05:55:32;18.90;99.90
54082;DHT22;39986;50.770;0.266;2022-08-21T05:57:58;19.00;99.90
54082;DHT22;39986;50.770;0.266;2022-08-21T06:00:24;19.10;99.90
54082;DHT22;39986;50.770;0.266;2022-08-21T06:02:50;19.20;99.90
54082;DHT22;39986;50.770;0.266;2022-08-21T06:05:17;19.30;99.90
54082;DHT22;39986;50.770;0.266;2022-08-21T06:08:08;19.40;99.90
54082;DHT22;39986;50.770;0.266;2022-08-21T06:10:34;19.60;99.90
54082;DHT22;39986;50.770;0.266;2022-08-21T06:12:59;19.70;99.90
54082;DHT22;39986;50.770;0.266;2022-08-21T06:15:25;19.70;99.90
54082;DHT22;39986;50.770;0.266;2022-08-21T06:17:53;19.70;99.90
54082;DHT22;39986;50.770;0.266;2022-08-21T06:20:18;19.80;99.90
54082;DHT22;39986;50.770;0.266;2022-08-21T06:22:44;19.90;99.90
54082;DHT22;39986;50.770;0.266;2022-08-21T06:25:10;20.00;99.90
54082;DHT22;39986;50.770;0.266;2022-08-21T06:27:36;20.10;99.90
54082;DHT22;39986;50.770;0.266;2022-08-21T06:30:03;20.10;99.90
54082;DHT22;39986;50.770;0.266;2022-08-21T06:32:28;20.10;99.90
54082;DHT22;39986;50.770;0.266;2022-08-21T06:34:54;20.00;99.90
54082;DHT22;39986;50.770;0.266;2022-08-21T06:37:20;19.90;99.90
54082;DHT22;39986;50.770;0.266;2022-08-21T06:39:45;19.90;99.90
54082;DHT22;39986;50.770;0.266;2022-08-21T06:42:15;19.80;99.90
54082;DHT22;39986;50.770;0.266;2022-08-21T06:44:42;19.80;99.90
54082;DHT22;39986;50.770;0.266;2022-08-21T06:47:07;19.80;99.90
54082;DHT22;39986;50.770;0.266;2022-08-21T06:49:33;19.70;99.90
54082;DHT22;39986;50.770;0.266;2022-08-21T06:52:00;19.70;99.90
54082;DHT22;39986;50.770;0.266;2022-08-21T06:54:26;19.70;99.90
54082;DHT22;39986;50.770;0.266;2022-08-21T06:56:51;19.70;99.90
54082;DHT22;39986;50.770;0.266;2022-08-21T06:59:17;19.80;99.90
54082;DHT22;39986;50.770;0.266;2022-08-21T07:01:43;20.00;99.90
54082;DHT22;39986;50.770;0.266;2022-08-21T07:04:08;20.40;99.90
54082;DHT22;39986;50.770;0.266;2022-08-21T07:06:34;20.70;99.90
54082;DHT22;39986;50.770;0.266;2022-08-21T07:09:00;20.90;99.90
54082;DHT22;39986;50.770;0.266;2022-08-21T07:11:27;21.20;99.90
54082;DHT22;39986;50.770;0.266;2022-08-21T07:13:53;21.40;99.90
54082;DHT22;39986;50.770;0.266;2022-08-21T07:16:23;21.60;99.90
54082;DHT22;39986;50.770;0.266;2022-08-21T07:18:48;21.70;99.90
54082;DHT22;39986;50.770;0.266;2022-08-21T07:21:15;21.80;99.90
54082;DHT22;39986;50.770;0.266;2022-08-21T07:23:47;21.80;99.90
54082;DHT22;39986;50.770;0.266;2022-08-21T07:26:16;21.90;99.90
54082;DHT22;39986;50.770;0.266;2022-08-21T07:28:42;21.90;99.90
54082;DHT22;39986;50.770;0.266;2022-08-21T07:31:09;21.90;99.90
54082;DHT22;39986;50.770;0.266;2022-08-21T07:33:36;22.00;99.90
54082;DHT22;39986;50.770;0.266;2022-08-21T07:36:03;22.00;99.90
54082;DHT22;39986;50.770;0.266;2022-08-21T07:38:28;22.10;99.90
54082;DHT22;39986;50.770;0.266;2022-08-21T07:40:55;22.10;99.90
54082;DHT22;39986;50.770;0.266;2022-08-21T07:43:22;22.10;99.90
54082;DHT22;39986;50.770;0.266;2022-08-21T07:45:48;22.20;99.90
54082;DHT22;39986;50.770;0.266;2022-08-21T07:48:16;22.20;99.90
54082;DHT22;39986;50.770;0.266;2022-08-21T07:50:43;22.20;99.90
54082;DHT22;39986;50.770;0.266;2022-08-21T07:53:08;22.20;99.90
54082;DHT22;39986;50.770;0.266;2022-08-21T07:55:34;22.10;99.90
54082;DHT22;39986;50.770;0.266;2022-08-21T07:58:00;22.10;99.90
54082;DHT22;39986;50.770;0.266;2022-08-21T08:00:28;22.00;99.90
54082;DHT22;39986;50.770;0.266;2022-08-21T08:02:54;21.90;99.90
54082;DHT22;39986;50.770;0.266;2022-08-21T08:05:23;21.80;99.90
54082;DHT22;39986;50.770;0.266;2022-08-21T08:07:49;21.70;99.90
54082;DHT22;39986;50.770;0.266;2022-08-21T08:13:57;21.50;99.90
54082;DHT22;39986;50.770;0.266;2022-08-21T08:16:25;21.50;99.90
54082;DHT22;39986;50.770;0.266;2022-08-21T08:18:51;21.30;99.90
54082;DHT22;39986;50.770;0.266;2022-08-21T08:21:17;21.30;99.90
54082;DHT22;39986;50.770;0.266;2022-08-21T08:23:46;21.20;99.90
54082;DHT22;39986;50.770;0.266;2022-08-21T08:26:12;21.10;99.90
54082;DHT22;39986;50.770;0.266;2022-08-21T08:28:38;21.00;99.90
54082;DHT22;39986;50.770;0.266;2022-08-21T08:31:04;21.00;99.90
54082;DHT22;39986;50.770;0.266;2022-08-21T08:33:29;21.00;99.90
54082;DHT22;39986;50.770;0.266;2022-08-21T08:35:55;20.90;99.90
54082;DHT22;39986;50.770;0.266;2022-08-21T08:38:22;20.90;99.90
54082;DHT22;39986;50.770;0.266;2022-08-21T08:41:16;20.90;99.90
54082;DHT22;39986;50.770;0.266;2022-08-21T08:43:52;21.00;99.90
54082;DHT22;39986;50.770;0.266;2022-08-21T08:46:25;21.10;99.90
54082;DHT22;39986;50.770;0.266;2022-08-21T08:49:08;21.20;99.90
54082;DHT22;39986;50.770;0.266;2022-08-21T08:51:46;21.10;99.90
54082;DHT22;39986;50.770;0.266;2022-08-21T08:54:17;21.00;99.90
54082;DHT22;39986;50.770;0.266;2022-08-21T08:56:44;21.00;99.90
54082;DHT22;39986;50.770;0.266;2022-08-21T08:59:20;20.90;99.90
54082;DHT22;39986;50.770;0.266;2022-08-21T09:01:48;20.90;99.90
54082;DHT22;39986;50.770;0.266;2022-08-21T09:04:25;20.90;99.90
54082;DHT22;39986;50.770;0.266;2022-08-21T09:07:06;21.00;99.90
54082;DHT22;39986;50.770;0.266;2022-08-21T09:12:59;21.20;99.90
54082;DHT22;39986;50.770;0.266;2022-08-21T09:21:17;22.20;99.90
54082;DHT22;39986;50.770;0.266;2022-08-21T09:26:54;22.20;99.90
54082;DHT22;39986;50.770;0.266;2022-08-21T09:29:24;21.90;99.90
54082;DHT22;39986;50.770;0.266;2022-08-21T09:31:53;21.60;99.90
54082;DHT22;39986;50.770;0.266;2022-08-21T09:34:30;21.40;99.90
54082;DHT22;39986;50.770;0.266;2022-08-21T09:36:57;21.30;99.90
54082;DHT22;39986;50.770;0.266;2022-08-21T09:39:32;21.20;99.90
54082;DHT22;39986;50.770;0.266;2022-08-21T09:42:08;21.30;99.90
54082;DHT22;39986;50.770;0.266;2022-08-21T09:44:39;21.40;99.90
54082;DHT22;39986;50.770;0.266;2022-08-21T09:47:09;21.60;99.90
54082;DHT22;39986;50.770;0.266;2022-08-21T09:49:39;21.90;99.90
54082;DHT22;39986;50.770;0.266;2022-08-21T09:52:22;22.20;99.90
54082;DHT22;39986;50.770;0.266;2022-08-21T09:54:52;22.50;99.90
54082;DHT22;39986;50.770;0.266;2022-08-21T09:57:24;22.70;99.90
54082;DHT22;39986;50.770;0.266;2022-08-21T10:00:28;23.10;99.90
54082;DHT22;39986;50.770;0.266;2022-08-21T10:03:11;23.50;99.90
54082;DHT22;39986;50.770;0.266;2022-08-21T10:05:39;23.90;99.90
54082;DHT22;39986;50.770;0.266;2022-08-21T10:08:05;24.60;99.90
54082;DHT22;39986;50.770;0.266;2022-08-21T10:11:13;25.60;99.90
54082;DHT22;39986;50.770;0.266;2022-08-21T10:22:02;26.20;99.90
54082;DHT22;39986;50.770;0.266;2022-08-21T10:30:28;25.60;99.90
54082;DHT22;39986;50.770;0.266;2022-08-21T10:33:26;25.20;99.90
54082;DHT22;39986;50.770;0.266;2022-08-21T10:36:12;25.00;99.90
54082;DHT22;39986;50.770;0.266;2022-08-21T10:38:43;25.10;99.90
54082;DHT22;39986;50.770;0.266;2022-08-21T10:47:17;24.80;99.90
54082;DHT22;39986;50.770;0.266;2022-08-21T10:50:04;24.60;99.90
54082;DHT22;39986;50.770;0.266;2022-08-21T10:55:40;25.50;99.90
54082;DHT22;39986;50.770;0.266;2022-08-21T11:00:53;26.80;99.90
54082;DHT22;39986;50.770;0.266;2022-08-21T11:03:32;28.60;99.90
54082;DHT22;39986;50.770;0.266;2022-08-21T11:06:22;28.80;99.90
54082;DHT22;39986;50.770;0.266;2022-08-21T11:08:58;28.80;99.90
54082;DHT22;39986;50.770;0.266;2022-08-21T11:11:42;28.40;99.90
54082;DHT22;39986;50.770;0.266;2022-08-21T11:17:07;28.40;99.90
54082;DHT22;39986;50.770;0.266;2022-08-21T11:19:52;28.10;99.90
54082;DHT22;39986;50.770;0.266;2022-08-21T11:22:33;27.70;99.90
54082;DHT22;39986;50.770;0.266;2022-08-21T11:25:19;27.80;99.90
54082;DHT22;39986;50.770;0.266;2022-08-21T11:28:06;28.60;99.90
54082;DHT22;39986;50.770;0.266;2022-08-21T11:33:34;31.90;98.10
54082;DHT22;39986;50.770;0.266;2022-08-21T11:36:29;33.60;93.70
54082;DHT22;39986;50.770;0.266;2022-08-21T11:47:46;29.70;96.60
54082;DHT22;39986;50.770;0.266;2022-08-21T11:50:18;28.60;98.70
54082;DHT22;39986;50.770;0.266;2022-08-21T11:52:48;28.00;99.90
54082;DHT22;39986;50.770;0.266;2022-08-21T11:55:26;27.60;99.90
54082;DHT22;39986;50.770;0.266;2022-08-21T11:57:58;27.90;99.90
54082;DHT22;39986;50.770;0.266;2022-08-21T12:00:30;28.60;99.20
54082;DHT22;39986;50.770;0.266;2022-08-21T12:03:08;28.40;99.50
54082;DHT22;39986;50.770;0.266;2022-08-21T12:05:42;27.90;99.90
54082;DHT22;39986;50.770;0.266;2022-08-21T12:11:06;26.80;99.90
54082;DHT22;39986;50.770;0.266;2022-08-21T12:13:39;25.90;99.90
54082;DHT22;39986;50.770;0.266;2022-08-21T12:16:32;25.50;99.90
54082;DHT22;39986;50.770;0.266;2022-08-21T12:21:53;25.20;99.90
54082;DHT22;39986;50.770;0.266;2022-08-21T12:24:45;25.40;99.90
54082;DHT22;39986;50.770;0.266;2022-08-21T12:30:03;26.70;99.90
54082;DHT22;39986;50.770;0.266;2022-08-21T12:32:42;26.60;99.90
54082;DHT22;39986;50.770;0.266;2022-08-21T12:35:21;26.60;99.90
54082;DHT22;39986;50.770;0.266;2022-08-21T12:38:12;26.70;99.90
54082;DHT22;39986;50.770;0.266;2022-08-21T12:41:03;26.70;99.90
54082;DHT22;39986;50.770;0.266;2022-08-21T12:43:36;26.60;99.90
54082;DHT22;39986;50.770;0.266;2022-08-21T12:46:03;26.50;99.90
54082;DHT22;39986;50.770;0.266;2022-08-21T12:50:58;26.90;99.90
54082;DHT22;39986;50.770;0.266;2022-08-21T12:54:01;26.80;99.90
54082;DHT22;39986;50.770;0.266;2022-08-21T12:56:32;26.50;99.90
54082;DHT22;39986;50.770;0.266;2022-08-21T12:59:07;26.20;99.90
54082;DHT22;39986;50.770;0.266;2022-08-21T13:01:39;25.80;99.90
54082;DHT22;39986;50.770;0.266;2022-08-21T13:04:16;25.20;99.90
54082;DHT22;39986;50.770;0.266;2022-08-21T13:06:48;24.50;99.90
54082;DHT22;39986;50.770;0.266;2022-08-21T13:09:19;24.30;99.90
54082;DHT22;39986;50.770;0.266;2022-08-21T13:11:47;24.40;99.90
54082;DHT22;39986;50.770;0.266;2022-08-21T13:14:35;24.80;99.90
54082;DHT22;39986;50.770;0.266;2022-08-21T13:17:04;25.10;99.90
54082;DHT22;39986;50.770;0.266;2022-08-21T13:19:31;24.90;99.90
54082;DHT22;39986;50.770;0.266;2022-08-21T13:21:57;24.40;99.90
54082;DHT22;39986;50.770;0.266;2022-08-21T13:24:25;23.90;99.90
54082;DHT22;39986;50.770;0.266;2022-08-21T13:26:52;24.00;99.90
54082;DHT22;39986;50.770;0.266;2022-08-21T13:29:20;24.20;99.90
54082;DHT22;39986;50.770;0.266;2022-08-21T13:31:49;24.00;99.90
54082;DHT22;39986;50.770;0.266;2022-08-21T13:34:18;23.60;99.90
54082;DHT22;39986;50.770;0.266;2022-08-21T13:36:45;23.40;99.90
54082;DHT22;39986;50.770;0.266;2022-08-21T13:39:17;23.20;99.90
54082;DHT22;39986;50.770;0.266;2022-08-21T13:41:46;23.00;99.90
54082;DHT22;39986;50.770;0.266;2022-08-21T13:44:19;22.70;99.90
54082;DHT22;39986;50.770;0.266;2022-08-21T13:46:48;22.40;99.90
54082;DHT22;39986;50.770;0.266;2022-08-21T13:49:17;22.30;99.90
54082;DHT22;39986;50.770;0.266;2022-08-21T13:51:45;22.40;99.90
54082;DHT22;39986;50.770;0.266;2022-08-21T13:56:48;22.40;99.90
54082;DHT22;39986;50.770;0.266;2022-08-21T13:59:28;22.50;99.90
54082;DHT22;39986;50.770;0.266;2022-08-21T14:01:59;22.50;99.90
54082;DHT22;39986;50.770;0.266;2022-08-21T14:04:33;22.40;99.90
54082;DHT22;39986;50.770;0.266;2022-08-21T14:07:00;22.40;99.90
54082;DHT22;39986;50.770;0.266;2022-08-21T14:09:34;22.20;99.90
54082;DHT22;39986;50.770;0.266;2022-08-21T14:12:17;22.10;99.90
54082;DHT22;39986;50.770;0.266;2022-08-21T14:14:45;22.00;99.90
54082;DHT22;39986;50.770;0.266;2022-08-21T14:17:24;22.00;99.90
54082;DHT22;39986;50.770;0.266;2022-08-21T14:19:52;22.00;99.90
54082;DHT22;39986;50.770;0.266;2022-08-21T14:22:44;21.70;99.90
54082;DHT22;39986;50.770;0.266;2022-08-21T14:25:14;21.50;99.90
54082;DHT22;39986;50.770;0.266;2022-08-21T14:27:54;21.50;99.90
54082;DHT22;39986;50.770;0.266;2022-08-21T14:30:33;21.40;99.90
54082;DHT22;39986;50.770;0.266;2022-08-21T14:33:00;21.50;99.90
54082;DHT22;39986;50.770;0.266;2022-08-21T14:35:26;21.60;99.90
54082;DHT22;39986;50.770;0.266;2022-08-21T14:37:52;21.60;99.90
54082;DHT22;39986;50.770;0.266;2022-08-21T14:40:20;21.60;99.90
54082;DHT22;39986;50.770;0.266;2022-08-21T14:42:46;21.70;99.90
54082;DHT22;39986;50.770;0.266;2022-08-21T14:45:23;21.80;99.90
54082;DHT22;39986;50.770;0.266;2022-08-21T14:47:51;21.70;99.90
54082;DHT22;39986;50.770;0.266;2022-08-21T14:50:16;21.70;99.90
54082;DHT22;39986;50.770;0.266;2022-08-21T14:52:42;21.90;99.90
54082;DHT22;39986;50.770;0.266;2022-08-21T14:55:10;21.90;99.90
54082;DHT22;39986;50.770;0.266;2022-08-21T14:57:40;22.00;99.90
54082;DHT22;39986;50.770;0.266;2022-08-21T15:00:06;22.00;99.90
54082;DHT22;39986;50.770;0.266;2022-08-21T15:02:34;21.90;99.90
54082;DHT22;39986;50.770;0.266;2022-08-21T15:05:00;21.80;99.90
54082;DHT22;39986;50.770;0.266;2022-08-21T15:07:26;21.70;99.90
54082;DHT22;39986;50.770;0.266;2022-08-21T15:09:51;21.70;99.90
54082;DHT22;39986;50.770;0.266;2022-08-21T15:12:17;21.50;99.90
54082;DHT22;39986;50.770;0.266;2022-08-21T15:14:43;21.40;99.90
54082;DHT22;39986;50.770;0.266;2022-08-21T15:17:09;21.30;99.90
54082;DHT22;39986;50.770;0.266;2022-08-21T15:19:36;21.40;99.90
54082;DHT22;39986;50.770;0.266;2022-08-21T15:22:02;21.30;99.90
54082;DHT22;39986;50.770;0.266;2022-08-21T15:24:28;21.30;99.90
54082;DHT22;39986;50.770;0.266;2022-08-21T15:26:54;21.30;99.90
54082;DHT22;39986;50.770;0.266;2022-08-21T15:29:20;21.30;99.90
54082;DHT22;39986;50.770;0.266;2022-08-21T15:31:59;21.40;99.90
54082;DHT22;39986;50.770;0.266;2022-08-21T15:34:27;21.50;99.90
54082;DHT22;39986;50.770;0.266;2022-08-21T15:36:54;21.60;99.90
54082;DHT22;39986;50.770;0.266;2022-08-21T15:39:20;21.80;99.90
54082;DHT22;39986;50.770;0.266;2022-08-21T15:41:46;21.90;99.90
54082;DHT22;39986;50.770;0.266;2022-08-21T15:44:13;22.00;99.90
54082;DHT22;39986;50.770;0.266;2022-08-21T15:46:40;22.20;99.90
54082;DHT22;39986;50.770;0.266;2022-08-21T15:49:06;22.10;99.90
54082;DHT22;39986;50.770;0.266;2022-08-21T15:51:32;22.00;99.90
54082;DHT22;39986;50.770;0.266;2022-08-21T15:53:59;22.10;99.90
54082;DHT22;39986;50.770;0.266;2022-08-21T15:56:28;22.20;99.90
54082;DHT22;39986;50.770;0.266;2022-08-21T15:59:12;22.10;99.90
54082;DHT22;39986;50.770;0.266;2022-08-21T16:01:39;22.30;99.90
54082;DHT22;39986;50.770;0.266;2022-08-21T16:04:05;22.40;99.90
54082;DHT22;39986;50.770;0.266;2022-08-21T16:06:31;22.50;99.90
54082;DHT22;39986;50.770;0.266;2022-08-21T16:08:59;22.60;99.90
54082;DHT22;39986;50.770;0.266;2022-08-21T16:11:28;22.90;99.90
54082;DHT22;39986;50.770;0.266;2022-08-21T16:13:54;23.20;99.90
54082;DHT22;39986;50.770;0.266;2022-08-21T16:16:22;23.10;99.90
54082;DHT22;39986;50.770;0.266;2022-08-21T16:18:49;22.90;99.90
54082;DHT22;39986;50.770;0.266;2022-08-21T16:21:16;23.00;99.90
54082;DHT22;39986;50.770;0.266;2022-08-21T16:23:42;23.00;99.90
54082;DHT22;39986;50.770;0.266;2022-08-21T16:26:09;23.10;99.90
54082;DHT22;39986;50.770;0.266;2022-08-21T16:28:38;23.10;99.90
54082;DHT22;39986;50.770;0.266;2022-08-21T16:31:05;22.90;99.90
54082;DHT22;39986;50.770;0.266;2022-08-21T16:33:43;22.80;99.90
54082;DHT22;39986;50.770;0.266;2022-08-21T16:36:11;22.90;99.90
54082;DHT22;39986;50.770;0.266;2022-08-21T16:38:37;23.10;99.90
54082;DHT22;39986;50.770;0.266;2022-08-21T16:41:08;23.00;99.90
54082;DHT22;39986;50.770;0.266;2022-08-21T16:43:35;22.80;99.90
54082;DHT22;39986;50.770;0.266;2022-08-21T16:46:03;22.40;99.90
54082;DHT22;39986;50.770;0.266;2022-08-21T16:48:28;22.20;99.90
54082;DHT22;39986;50.770;0.266;2022-08-21T16:50:55;22.20;99.90
54082;DHT22;39986;50.770;0.266;2022-08-21T16:53:21;22.20;99.90
54082;DHT22;39986;50.770;0.266;2022-08-21T16:55:49;22.30;99.90
54082;DHT22;39986;50.770;0.266;2022-08-21T16:58:21;22.40;99.90